Time,TemperatureF,DewpointF,PressureIn,WindDirection,WindDirectionDegrees,WindSpeedMPH,WindSpeedGustMPH,Humidity,HourlyPrecipIn,Conditions,Clouds,dailyrainin,SoftwareType,DateUTC
2013-05-16 00:02:00,67.0,61.0,-100.00,WSW,245,0.0,3.0,81,-99.99,,,-99.99,,2013-05-16 04:02:00,
2013-05-16 00:12:00,67.0,61.0,-100.00,SW,220,1.0,2.0,81,-99.99,,,-99.99,,2013-05-16 04:12:00,
2013-05-16 00:23:00,67.0,63.0,-100.00,SSE,165,0.0,2.0,86,-99.99,,,-99.99,,2013-05-16 04:23:00,
2013-05-16 00:33:00,66.0,62.0,-100.00,NW,305,0.0,1.0,87,-99.99,,,-99.99,,2013-05-16 04:33:00,
2013-05-16 00:42:00,66.0,63.0,-100.00,SW,215,0.0,1.0,91,-99.99,,,-99.99,,2013-05-16 04:42:00,
2013-05-16 00:53:00,66.0,62.0,-100.00,SW,235,1.0,1.0,88,-99.99,,,-99.99,,2013-05-16 04:53:00,
2013-05-16 01:03:00,65.0,63.0,-100.00,North,350,2.0,3.0,94,-99.99,,,-99.99,,2013-05-16 05:03:00,
2013-05-16 01:12:00,64.0,63.0,-100.00,NNE,15,0.0,1.0,94,-99.99,,,-99.99,,2013-05-16 05:12:00,
2013-05-16 01:22:00,63.0,63.0,-100.00,South,180,0.0,1.0,97,-99.99,,,-99.99,,2013-05-16 05:22:00,
2013-05-16 01:32:00,63.0,63.0,-100.00,SSW,200,1.0,2.0,99,-99.99,,,-99.99,,2013-05-16 05:32:00,
2013-05-16 01:42:00,63.0,62.0,-100.00,West,265,1.0,2.0,99,-99.99,,,-99.99,,2013-05-16 05:42:00,
2013-05-16 01:52:00,62.0,62.0,-100.00,SW,235,0.0,1.0,99,-99.99,,,-99.99,,2013-05-16 05:52:00,
2013-05-16 02:02:00,62.0,62.0,-100.00,WSW,245,2.0,3.0,99,-99.99,,,-99.99,,2013-05-16 06:02:00,
2013-05-16 02:12:00,62.0,61.0,-100.00,SSW,200,0.0,2.0,99,-99.99,,,-99.99,,2013-05-16 06:12:00,
2013-05-16 02:23:00,61.0,61.0,-100.00,NNW,345,0.0,3.0,99,-99.99,,,-99.99,,2013-05-16 06:23:00,
2013-05-16 02:33:00,61.0,61.0,-100.00,NW,305,2.0,3.0,99,-99.99,,,-99.99,,2013-05-16 06:33:00,
2013-05-16 02:43:00,60.0,60.0,-100.00,NW,320,1.0,3.0,99,-99.99,,,-99.99,,2013-05-16 06:43:00,
2013-05-16 02:53:00,60.0,60.0,-100.00,SSW,210,0.0,2.0,99,-99.99,,,-99.99,,2013-05-16 06:53:00,
2013-05-16 03:02:00,60.0,60.0,-100.00,NW,310,2.0,4.0,99,-99.99,,,-99.99,,2013-05-16 07:02:00,
2013-05-16 03:12:00,60.0,59.0,-100.00,SW,230,1.0,2.0,99,-99.99,,,-99.99,,2013-05-16 07:12:00,
2013-05-16 03:24:00,59.0,59.0,-100.00,SW,230,1.0,2.0,99,-99.99,,,-99.99,,2013-05-16 07:24:00,
2013-05-16 03:34:00,59.0,59.0,-100.00,SW,230,1.0,4.0,99,-99.99,,,-99.99,,2013-05-16 07:34:00,
2013-05-16 03:44:00,58.0,58.0,-100.00,NW,315,2.0,3.0,99,-99.99,,,-99.99,,2013-05-16 07:44:00,
2013-05-16 03:54:00,58.0,58.0,-100.00,West,265,1.0,4.0,99,-99.99,,,-99.99,,2013-05-16 07:54:00,
2013-05-16 04:03:00,58.0,58.0,-100.00,WSW,240,0.0,1.0,99,-99.99,,,-99.99,,2013-05-16 08:03:00,
2013-05-16 04:13:00,58.0,57.0,-100.00,WSW,250,0.0,2.0,96,-99.99,,,-99.99,,2013-05-16 08:13:00,
2013-05-16 04:24:00,57.0,56.0,-100.00,WNW,295,0.0,1.0,96,-99.99,,,-99.99,,2013-05-16 08:24:00,
2013-05-16 04:35:00,57.0,56.0,-100.00,SW,225,1.0,1.0,96,-99.99,,,-99.99,,2013-05-16 08:35:00,
2013-05-16 04:45:00,57.0,55.0,-100.00,West,260,2.0,4.0,93,-99.99,,,-99.99,,2013-05-16 08:45:00,
2013-05-16 04:54:00,57.0,55.0,-100.00,SW,220,2.0,4.0,92,-99.99,,,-99.99,,2013-05-16 08:54:00,
2013-05-16 05:04:00,57.0,56.0,-100.00,West,275,1.0,2.0,95,-99.99,,,-99.99,,2013-05-16 09:04:00,
2013-05-16 05:14:00,57.0,55.0,-100.00,West,265,1.0,4.0,94,-99.99,,,-99.99,,2013-05-16 09:14:00,
2013-05-16 05:24:00,57.0,55.0,-100.00,SW,225,0.0,4.0,93,-99.99,,,-99.99,,2013-05-16 09:24:00,
2013-05-16 05:35:00,57.0,55.0,-100.00,SSW,205,1.0,1.0,95,-99.99,,,-99.99,,2013-05-16 09:35:00,
2013-05-16 05:45:00,57.0,54.0,-100.00,NW,325,0.0,1.0,92,-99.99,,,-99.99,,2013-05-16 09:45:00,
2013-05-16 05:55:00,57.0,53.0,-100.00,West,280,1.0,1.0,89,-99.99,,,-99.99,,2013-05-16 09:55:00,
2013-05-16 06:05:00,56.0,56.0,-100.00,NW,310,0.0,2.0,99,-99.99,,,-99.99,,2013-05-16 10:05:00,
2013-05-16 06:15:00,56.0,56.0,-100.00,SW,220,0.0,1.0,99,-99.99,,,-99.99,,2013-05-16 10:15:00,
2013-05-16 06:24:00,56.0,56.0,-100.00,SW,220,0.0,1.0,99,-99.99,,,-99.99,,2013-05-16 10:24:00,
2013-05-16 06:36:00,56.0,56.0,-100.00,WNW,300,1.0,2.0,99,-99.99,,,-99.99,,2013-05-16 10:36:00,
2013-05-16 06:45:00,56.0,56.0,-100.00,NW,305,1.0,4.0,99,-99.99,,,-99.99,,2013-05-16 10:45:00,
2013-05-16 06:56:00,56.0,56.0,-100.00,SW,220,0.0,4.0,99,-99.99,,,-99.99,,2013-05-16 10:56:00,
2013-05-16 07:05:00,56.0,55.0,-100.00,SSW,210,0.0,1.0,99,-99.99,,,-99.99,,2013-05-16 11:05:00,
2013-05-16 07:15:00,56.0,55.0,-100.00,SSW,205,0.0,0.0,99,-99.99,,,-99.99,,2013-05-16 11:15:00,
2013-05-16 07:25:00,56.0,56.0,-100.00,East,85,1.0,3.0,99,-99.99,,,-99.99,,2013-05-16 11:25:00,
2013-05-16 07:35:00,56.0,56.0,-100.00,West,270,1.0,2.0,99,-99.99,,,-99.99,,2013-05-16 11:35:00,
2013-05-16 07:46:00,57.0,57.0,-100.00,West,270,1.0,1.0,99,-99.99,,,-99.99,,2013-05-16 11:46:00,
2013-05-16 07:56:00,59.0,59.0,-100.00,ESE,120,0.0,4.0,99,-99.99,,,-99.99,,2013-05-16 11:56:00,
2013-05-16 08:06:00,60.0,59.0,-100.00,NW,325,0.0,1.0,95,-99.99,,,-99.99,,2013-05-16 12:06:00,
2013-05-16 08:13:00,61.0,60.0,-100.00,SSW,200,0.0,1.0,96,-99.99,,,-99.99,,2013-05-16 12:13:00,
2013-05-16 08:23:00,62.0,62.0,-100.00,ESE,110,0.0,2.0,99,-99.99,,,-99.99,,2013-05-16 12:23:00,
2013-05-16 08:35:00,63.0,63.0,-100.00,NNW,345,1.0,2.0,99,-99.99,,,-99.99,,2013-05-16 12:35:00,
2013-05-16 08:45:00,66.0,64.0,-100.00,West,265,1.0,2.0,93,-99.99,,,-99.99,,2013-05-16 12:45:00,
2013-05-16 08:53:00,69.0,64.0,-100.00,NNW,330,2.0,4.0,83,-99.99,,,-99.99,,2013-05-16 12:53:00,
2013-05-16 09:04:00,73.0,61.0,-100.00,NW,310,4.0,5.0,66,-99.99,,,-99.99,,2013-05-16 13:04:00,
2013-05-16 09:12:00,74.0,60.0,-100.00,WNW,295,4.0,6.0,61,-99.99,,,-99.99,,2013-05-16 13:12:00,
2013-05-16 09:27:00,74.0,60.0,-100.00,WNW,300,2.0,6.0,61,-99.99,,,-99.99,,2013-05-16 13:27:00,
2013-05-16 09:35:00,75.0,59.0,-100.00,NW,315,4.0,8.0,59,-99.99,,,-99.99,,2013-05-16 13:35:00,
2013-05-16 09:43:00,74.0,59.0,-100.00,NW,325,4.0,9.0,58,-99.99,,,-99.99,,2013-05-16 13:43:00,
2013-05-16 09:55:00,74.0,59.0,-100.00,NW,325,4.0,9.0,58,-99.99,,,-99.99,,2013-05-16 13:55:00,
2013-05-16 10:05:00,78.0,59.0,-100.00,WNW,300,5.0,10.0,53,-99.99,,,-99.99,,2013-05-16 14:05:00,
2013-05-16 10:16:00,78.0,59.0,-100.00,NW,310,5.0,13.0,52,-99.99,,,-99.99,,2013-05-16 14:16:00,
2013-05-16 10:23:00,78.0,58.0,-100.00,NW,315,5.0,12.0,51,-99.99,,,-99.99,,2013-05-16 14:23:00,
2013-05-16 10:37:00,79.0,59.0,-100.00,WNW,300,4.0,10.0,51,-99.99,,,-99.99,,2013-05-16 14:37:00,
2013-05-16 10:47:00,79.0,59.0,-100.00,NW,310,5.0,9.0,51,-99.99,,,-99.99,,2013-05-16 14:47:00,
2013-05-16 10:56:00,79.0,59.0,-100.00,NW,310,5.0,9.0,51,-99.99,,,-99.99,,2013-05-16 14:56:00,
2013-05-16 11:08:00,80.0,59.0,-100.00,WNW,290,5.0,12.0,49,-99.99,,,-99.99,,2013-05-16 15:08:00,
2013-05-16 11:17:00,81.0,60.0,-100.00,WNW,300,4.0,9.0,49,-99.99,,,-99.99,,2013-05-16 15:17:00,
2013-05-16 11:28:00,81.0,58.0,-100.00,NW,310,7.0,12.0,47,-99.99,,,-99.99,,2013-05-16 15:28:00,
2013-05-16 11:40:00,82.0,59.0,-100.00,WNW,300,5.0,9.0,47,-99.99,,,-99.99,,2013-05-16 15:40:00,
2013-05-16 11:50:00,82.0,59.0,-100.00,West,275,5.0,12.0,47,-99.99,,,-99.99,,2013-05-16 15:50:00,
2013-05-16 12:00:00,83.0,59.0,-100.00,WNW,295,6.0,11.0,45,-99.99,,,-99.99,,2013-05-16 16:00:00,
2013-05-16 12:09:00,83.0,59.0,-100.00,WSW,255,4.0,8.0,45,-99.99,,,-99.99,,2013-05-16 16:09:00,
2013-05-16 12:20:00,83.0,59.0,-100.00,NW,305,3.0,5.0,44,-99.99,,,-99.99,,2013-05-16 16:20:00,
2013-05-16 12:30:00,83.0,59.0,-100.00,NW,305,3.0,5.0,44,-99.99,,,-99.99,,2013-05-16 16:30:00,
2013-05-16 12:40:00,83.0,-99.9,-100.00,WNW,300,4.0,8.0,43,-99.99,,,-99.99,,2013-05-16 16:40:00,
2013-05-16 12:51:00,83.0,58.0,-100.00,NW,305,4.0,6.0,44,-99.99,,,-99.99,,2013-05-16 16:51:00,
2013-05-16 13:01:00,84.0,58.0,-100.00,WSW,255,1.0,4.0,42,-99.99,,,-99.99,,2013-05-16 17:01:00,
2013-05-16 13:11:00,85.0,60.0,-100.00,NNW,335,2.0,5.0,44,-99.99,,,-99.99,,2013-05-16 17:11:00,
2013-05-16 13:20:00,85.0,60.0,-100.00,SSE,160,0.0,3.0,43,-99.99,,,-99.99,,2013-05-16 17:20:00,
2013-05-16 13:31:00,83.0,59.0,-100.00,South,175,1.0,5.0,44,-99.99,,,-99.99,,2013-05-16 17:31:00,
2013-05-16 13:40:00,83.0,60.0,-100.00,West,260,2.0,5.0,45,-99.99,,,-99.99,,2013-05-16 17:40:00,
2013-05-16 13:50:00,-999.0,-99.9,-100.00,SE,145,1.0,4.0,46,-99.99,,,-99.99,,2013-05-16 17:50:00,
2013-05-16 14:00:00,83.0,-99.9,-100.00,South,185,4.0,8.0,48,-99.99,,,-99.99,,2013-05-16 18:00:00,
2013-05-16 14:10:00,83.0,61.0,-100.00,SSW,210,1.0,5.0,47,-99.99,,,-99.99,,2013-05-16 18:10:00,
2013-05-16 14:20:00,84.0,62.0,-100.00,South,170,1.0,6.0,47,-99.99,,,-99.99,,2013-05-16 18:20:00,
2013-05-16 14:30:00,-999.0,-99.9,-100.00,SSW,205,4.0,6.0,47,-99.99,,,-99.99,,2013-05-16 18:30:00,
2013-05-16 14:40:00,-999.0,-99.9,-100.00,South,175,4.0,6.0,46,-99.99,,,-99.99,,2013-05-16 18:40:00,
2013-05-16 14:50:00,-999.0,-99.9,-100.00,South,185,4.0,10.0,49,-99.99,,,-99.99,,2013-05-16 18:50:00,
2013-05-16 15:00:00,-999.0,-99.9,-100.00,SSW,205,3.0,9.0,51,-99.99,,,-99.99,,2013-05-16 19:00:00,
2013-05-16 15:11:00,81.0,-99.9,-100.00,SSW,205,3.0,9.0,51,-99.99,,,-99.99,,2013-05-16 19:11:00,
2013-05-16 15:20:00,80.0,61.0,-100.00,SSW,200,4.0,9.0,54,-99.99,,,-99.99,,2013-05-16 19:20:00,
2013-05-16 15:30:00,78.0,62.0,-100.00,SSW,205,5.0,11.0,57,-99.99,,,-99.99,,2013-05-16 19:30:00,
2013-05-16 15:40:00,77.0,-99.9,-100.00,SSW,210,6.0,10.0,59,-99.99,,,-99.99,,2013-05-16 19:40:00,
2013-05-16 15:51:00,-999.0,-99.9,-100.00,SSW,195,4.0,11.0,61,-99.99,,,-99.99,,2013-05-16 19:51:00,
2013-05-16 16:00:00,76.0,-99.9,-100.00,SSW,210,4.0,9.0,64,-99.99,,,-99.99,,2013-05-16 20:00:00,
2013-05-16 16:10:00,-999.0,-99.9,-100.00,South,175,4.0,9.0,65,-99.99,,,-99.99,,2013-05-16 20:10:00,
2013-05-16 16:20:00,76.0,-99.9,-100.00,SW,215,2.0,9.0,65,-99.99,,,-99.99,,2013-05-16 20:20:00,
2013-05-16 16:30:00,78.0,-99.9,-100.00,South,170,1.0,6.0,63,-99.99,,,-99.99,,2013-05-16 20:30:00,
2013-05-16 16:41:00,-999.0,-99.9,-100.00,SW,220,4.0,7.0,59,-99.99,,,-99.99,,2013-05-16 20:41:00,
2013-05-16 16:51:00,83.0,66.0,-100.00,SSW,205,4.0,9.0,57,-99.99,,,-99.99,,2013-05-16 20:51:00,
2013-05-16 17:00:00,82.0,65.0,-100.00,WSW,245,3.0,9.0,56,-99.99,,,-99.99,,2013-05-16 21:00:00,
2013-05-16 17:10:00,-999.0,-99.9,-100.00,SW,220,2.0,7.0,54,-99.99,,,-99.99,,2013-05-16 21:10:00,
2013-05-16 17:20:00,82.0,-99.9,-100.00,SW,230,4.0,13.0,54,-99.99,,,-99.99,,2013-05-16 21:20:00,
2013-05-16 17:29:00,80.0,63.0,-100.00,SW,220,4.0,9.0,55,-99.99,,,-99.99,,2013-05-16 21:29:00,
2013-05-16 17:38:00,80.0,64.0,-100.00,South,180,2.0,6.0,57,-99.99,,,-99.99,,2013-05-16 21:38:00,
2013-05-16 17:50:00,80.0,-99.9,-100.00,SSW,205,3.0,7.0,58,-99.99,,,-99.99,,2013-05-16 21:50:00,
2013-05-16 18:00:00,-999.0,-99.9,-100.00,South,180,2.0,7.0,59,-99.99,,,-99.99,,2013-05-16 22:00:00,
2013-05-16 18:08:00,81.0,64.0,-100.00,SW,215,4.0,9.0,56,-99.99,,,-99.99,,2013-05-16 22:08:00,
2013-05-16 18:21:00,80.0,64.0,-100.00,SSW,210,4.0,7.0,58,-99.99,,,-99.99,,2013-05-16 22:21:00,
2013-05-16 18:31:00,80.0,63.0,-100.00,SSW,205,4.0,7.0,58,-99.99,,,-99.99,,2013-05-16 22:31:00,
2013-05-16 18:40:00,79.0,63.0,-100.00,South,190,4.0,9.0,59,-99.99,,,-99.99,,2013-05-16 22:40:00,
2013-05-16 18:51:00,79.0,63.0,-100.00,South,185,4.0,9.0,59,-99.99,,,-99.99,,2013-05-16 22:51:00,
2013-05-16 19:00:00,80.0,64.0,-100.00,SSW,205,3.0,9.0,58,-99.99,,,-99.99,,2013-05-16 23:00:00,
2013-05-16 19:07:00,81.0,65.0,-100.00,South,175,1.0,9.0,57,-99.99,,,-99.99,,2013-05-16 23:07:00,
2013-05-16 19:16:00,80.0,63.0,-100.00,SSW,195,6.0,9.0,57,-99.99,,,-99.99,,2013-05-16 23:16:00,
2013-05-16 19:24:00,79.0,63.0,-100.00,SSW,205,3.0,9.0,59,-99.99,,,-99.99,,2013-05-16 23:24:00,
2013-05-16 19:35:00,80.0,64.0,-100.00,SSW,210,3.0,7.0,58,-99.99,,,-99.99,,2013-05-16 23:35:00,
2013-05-16 19:45:00,81.0,64.0,-100.00,ENE,65,1.0,5.0,58,-99.99,,,-99.99,,2013-05-16 23:45:00,
2013-05-16 19:54:00,81.0,64.0,-100.00,South,185,1.0,4.0,56,-99.99,,,-99.99,,2013-05-16 23:54:00,
2013-05-16 20:03:00,80.0,63.0,-100.00,SW,235,2.0,6.0,57,-99.99,,,-99.99,,2013-05-17 00:03:00,
2013-05-16 20:13:00,78.0,62.0,-100.00,SSW,195,1.0,5.0,58,-99.99,,,-99.99,,2013-05-17 00:13:00,
2013-05-16 20:22:00,77.0,62.0,-100.00,SW,215,1.0,4.0,59,-99.99,,,-99.99,,2013-05-17 00:22:00,
2013-05-16 20:33:00,76.0,62.0,-100.00,South,175,0.0,1.0,61,-99.99,,,-99.99,,2013-05-17 00:33:00,
2013-05-16 20:43:00,75.0,62.0,-100.00,West,280,0.0,1.0,63,-99.99,,,-99.99,,2013-05-17 00:43:00,
2013-05-16 20:53:00,74.0,61.0,-100.00,WSW,250,0.0,1.0,65,-99.99,,,-99.99,,2013-05-17 00:53:00,
2013-05-16 21:03:00,73.0,61.0,-100.00,WNW,285,1.0,1.0,67,-99.99,,,-99.99,,2013-05-17 01:03:00,
2013-05-16 21:12:00,71.0,62.0,-100.00,South,190,0.0,1.0,72,-99.99,,,-99.99,,2013-05-17 01:12:00,
2013-05-16 21:23:00,70.0,61.0,-100.00,SE,130,0.0,1.0,72,-99.99,,,-99.99,,2013-05-17 01:23:00,
2013-05-16 21:32:00,69.0,62.0,-100.00,South,185,0.0,0.0,79,-99.99,,,-99.99,,2013-05-17 01:32:00,
2013-05-16 21:43:00,68.0,63.0,-100.00,SW,225,1.0,1.0,83,-99.99,,,-99.99,,2013-05-17 01:43:00,
2013-05-16 21:52:00,67.0,63.0,-100.00,SSW,205,0.0,1.0,86,-99.99,,,-99.99,,2013-05-17 01:52:00,
2013-05-16 22:02:00,67.0,63.0,-100.00,ENE,75,1.0,1.0,86,-99.99,,,-99.99,,2013-05-17 02:02:00,
2013-05-16 22:11:00,67.0,63.0,-100.00,SE,145,0.0,1.0,88,-99.99,,,-99.99,,2013-05-17 02:11:00,
2013-05-16 22:22:00,66.0,65.0,-100.00,SSW,205,1.0,1.0,96,-99.99,,,-99.99,,2013-05-17 02:22:00,
2013-05-16 22:33:00,65.0,65.0,-100.00,SSW,205,0.0,1.0,98,-99.99,,,-99.99,,2013-05-17 02:33:00,
2013-05-16 22:42:00,65.0,65.0,-100.00,ENE,70,0.0,1.0,98,-99.99,,,-99.99,,2013-05-17 02:42:00,
2013-05-16 22:53:00,65.0,65.0,-100.00,ENE,65,0.0,0.0,99,-99.99,,,-99.99,,2013-05-17 02:53:00,
2013-05-16 23:02:00,64.0,64.0,-100.00,SSW,200,0.0,1.0,99,-99.99,,,-99.99,,2013-05-17 03:02:00,
2013-05-16 23:11:00,64.0,64.0,-100.00,NE,45,1.0,1.0,99,-99.99,,,-99.99,,2013-05-17 03:11:00,
2013-05-16 23:23:00,64.0,64.0,-100.00,ENE,75,0.0,1.0,99,-99.99,,,-99.99,,2013-05-17 03:23:00,
2013-05-16 23:34:00,64.0,64.0,-100.00,WNW,295,1.0,2.0,99,-99.99,,,-99.99,,2013-05-17 03:34:00,
2013-05-16 23:43:00,63.0,63.0,-100.00,West,260,1.0,2.0,99,-99.99,,,-99.99,,2013-05-17 03:43:00,
2013-05-16 23:53:00,63.0,63.0,-100.00,NW,315,0.0,1.0,99,-99.99,,,-99.99,,2013-05-17 03:53:00,